Aviation Digital Data Service (ADDS)

Output produced by METARs form (0314 UTC 05 June 2020)
found at http://www.aviationweather.gov/metar/data/
 
METAR text: ZGKL 050300Z 09002MPS 020V140 9999 FEW010 SCT030 BKN050 26/24 Q1006 NOSIG
Conditions at: ZGKL (GUILIN , CN) observed 0300 UTC 05 June 2020
Temperature: 26.0°C (79°F)
Dewpoint: 24.0°C (75°F) [RH = 89%]
Pressure (altimeter): 29.70 inches Hg (1006.0 mb)
Winds: from the E (90 degrees) at 5 MPH (4 knots; 2.1 m/s)
Visibility: 6 or more miles (10+ km)
Ceiling: 5000 feet AGL
Clouds: few clouds at 1000 feet AGL
scattered clouds at 3000 feet AGL
broken clouds at 5000 feet AGL
Weather: no significant weather observed at this time

METAR text: ZGKL 050200Z VRB01MPS 9999 FEW010 SCT026 BKN043 24/23 Q1006 NOSIG
Conditions at: ZGKL (GUILIN , CN) observed 0200 UTC 05 June 2020
Temperature: 24.0°C (75°F)
Dewpoint: 23.0°C (73°F) [RH = 94%]
Pressure (altimeter): 29.70 inches Hg (1006.0 mb)
Winds: variable direction winds at 2 MPH (2 knots; 1.0 m/s)
Visibility: 6 or more miles (10+ km)
Ceiling: 4300 feet AGL
Clouds: few clouds at 1000 feet AGL
scattered clouds at 2600 feet AGL
broken clouds at 4300 feet AGL
Weather: no significant weather observed at this time

METAR text: ZGKL 050100Z VRB02MPS 9999 -SHRA FEW005 SCT015 BKN033 FEW033CB 23/23 Q1006 NOSIG
Conditions at: ZGKL (GUILIN , CN) observed 0100 UTC 05 June 2020
Temperature: 23.0°C (73°F)
Dewpoint: 23.0°C (73°F) [RH = 100%]
Pressure (altimeter): 29.70 inches Hg (1006.0 mb)
Winds: variable direction winds at 5 MPH (4 knots; 2.1 m/s)
Visibility: 6 or more miles (10+ km)
Ceiling: 3300 feet AGL
Clouds: few clouds at 500 feet AGL
scattered clouds at 1500 feet AGL
broken clouds at 3300 feet AGL
few clouds at 3300 feet AGL
Weather: -SHRA  (light rain showers)

METAR text: ZGKL 050000Z 15004MPS 120V190 4000 -SHRA BR FEW003 SCT015 BKN033 FEW033CB 23/22 Q1007 RETSRA TEMPO FM0015 SHRA
Conditions at: ZGKL (GUILIN , CN) observed 0000 UTC 05 June 2020
Temperature: 23.0°C (73°F)
Dewpoint: 22.0°C (72°F) [RH = 94%]
Pressure (altimeter): 29.73 inches Hg (1007.0 mb)
Winds: from the SSE (150 degrees) at 9 MPH (8 knots; 4.1 m/s)
Visibility: 2.49 miles (4.01 km)
Ceiling: 3300 feet AGL
Clouds: few clouds at 300 feet AGL
scattered clouds at 1500 feet AGL
broken clouds at 3300 feet AGL
few clouds at 3300 feet AGL
Weather: -SHRA BR  (light rain showers, mist)

METAR text: ZGKL 042300Z VRB01MPS 2800 -TSRA BR FEW003 SCT015 BKN033 FEW033CB 22/22 Q1007 BECMG FM2320 3000 TSRA
Conditions at: ZGKL (GUILIN , CN) observed 2300 UTC 04 June 2020
Temperature: 22.0°C (72°F)
Dewpoint: 22.0°C (72°F) [RH = 100%]
Pressure (altimeter): 29.73 inches Hg (1007.0 mb)
Winds: variable direction winds at 2 MPH (2 knots; 1.0 m/s)
Visibility: 1.74 miles (2.80 km)
Ceiling: 3300 feet AGL
Clouds: few clouds at 300 feet AGL
scattered clouds at 1500 feet AGL
broken clouds at 3300 feet AGL
few clouds at 3300 feet AGL
Weather: -TSRA BR  (light rain associated with thunderstorm(s), mist)

METAR text: ZGKL 042200Z 35002MPS 310V020 3500 -TSRA BR SCT015 BKN040 FEW040CB 22/22 Q1006 RESHRA BECMG FM2210 2000 TSRA
Conditions at: ZGKL (GUILIN , CN) observed 2200 UTC 04 June 2020
Temperature: 22.0°C (72°F)
Dewpoint: 22.0°C (72°F) [RH = 100%]
Pressure (altimeter): 29.70 inches Hg (1006.0 mb)
Winds: from the N (350 degrees) at 5 MPH (4 knots; 2.1 m/s)
Visibility: 2.17 miles (3.49 km)
Ceiling: 4000 feet AGL
Clouds: scattered clouds at 1500 feet AGL
broken clouds at 4000 feet AGL
few clouds at 4000 feet AGL
Weather: -TSRA BR  (light rain associated with thunderstorm(s), mist)

METAR text: ZGKL 042100Z 22002MPS 5000 -TSRA BR SCT015 BKN040 FEW040CB 22/22 Q1006 NOSIG
Conditions at: ZGKL (GUILIN , CN) observed 2100 UTC 04 June 2020
Temperature: 22.0°C (72°F)
Dewpoint: 22.0°C (72°F) [RH = 100%]
Pressure (altimeter): 29.70 inches Hg (1006.0 mb)
Winds: from the SW (220 degrees) at 5 MPH (4 knots; 2.1 m/s)
Visibility: 3 miles ( 5 km)
Ceiling: 4000 feet AGL
Clouds: scattered clouds at 1500 feet AGL
broken clouds at 4000 feet AGL
few clouds at 4000 feet AGL
Weather: -TSRA BR  (light rain associated with thunderstorm(s), mist)

METAR text: ZGKL 042000Z 00000MPS 6000 -TSRA SCT015 FEW040CB BKN040 22/22 Q1006 NOSIG
Conditions at: ZGKL (GUILIN , CN) observed 2000 UTC 04 June 2020
Temperature: 22.0°C (72°F)
Dewpoint: 22.0°C (72°F) [RH = 100%]
Pressure (altimeter): 29.70 inches Hg (1006.0 mb)
Winds: calm
Visibility: 4 miles ( 6 km)
Ceiling: 4000 feet AGL
Clouds: scattered clouds at 1500 feet AGL
few clouds at 4000 feet AGL
broken clouds at 4000 feet AGL
Weather: -TSRA  (light rain associated with thunderstorm(s))

METAR text: ZGKL 041900Z 17003MPS 9999 -TSRA SCT013 SCT030 FEW030CB BKN060 23/22 Q1006 NOSIG
Conditions at: ZGKL (GUILIN , CN) observed 1900 UTC 04 June 2020
Temperature: 23.0°C (73°F)
Dewpoint: 22.0°C (72°F) [RH = 94%]
Pressure (altimeter): 29.70 inches Hg (1006.0 mb)
Winds: from the S (170 degrees) at 7 MPH (6 knots; 3.1 m/s)
Visibility: 6 or more miles (10+ km)
Ceiling: 6000 feet AGL
Clouds: scattered clouds at 1300 feet AGL
scattered clouds at 3000 feet AGL
few clouds at 3000 feet AGL
broken clouds at 6000 feet AGL
Weather: -TSRA  (light rain associated with thunderstorm(s))

METAR text: ZGKL 041800Z 00000MPS 5000 -TSRA BR FEW004 FEW030CB SCT030 BKN060 23/22 Q1006 NOSIG
Conditions at: ZGKL (GUILIN , CN) observed 1800 UTC 04 June 2020
Temperature: 23.0°C (73°F)
Dewpoint: 22.0°C (72°F) [RH = 94%]
Pressure (altimeter): 29.70 inches Hg (1006.0 mb)
Winds: calm
Visibility: 3 miles ( 5 km)
Ceiling: 6000 feet AGL
Clouds: few clouds at 400 feet AGL
few clouds at 3000 feet AGL
scattered clouds at 3000 feet AGL
broken clouds at 6000 feet AGL
Weather: -TSRA BR  (light rain associated with thunderstorm(s), mist)

METAR text: ZGKL 041700Z 16002MPS 130V190 4000 -TSRA BR FEW016 FEW033CB SCT033 BKN066 24/23 Q1006 NOSIG
Conditions at: ZGKL (GUILIN , CN) observed 1700 UTC 04 June 2020
Temperature: 24.0°C (75°F)
Dewpoint: 23.0°C (73°F) [RH = 94%]
Pressure (altimeter): 29.70 inches Hg (1006.0 mb)
Winds: from the SSE (160 degrees) at 5 MPH (4 knots; 2.1 m/s)
Visibility: 2.49 miles (4.01 km)
Ceiling: 6600 feet AGL
Clouds: few clouds at 1600 feet AGL
few clouds at 3300 feet AGL
scattered clouds at 3300 feet AGL
broken clouds at 6600 feet AGL
Weather: -TSRA BR  (light rain associated with thunderstorm(s), mist)

METAR text: ZGKL 041600Z VRB01MPS 3000 -TSRA BR FEW004 FEW030CB SCT030 BKN060 24/24 Q1007 NOSIG
Conditions at: ZGKL (GUILIN , CN) observed 1600 UTC 04 June 2020
Temperature: 24.0°C (75°F)
Dewpoint: 24.0°C (75°F) [RH = 100%]
Pressure (altimeter): 29.73 inches Hg (1007.0 mb)
Winds: variable direction winds at 2 MPH (2 knots; 1.0 m/s)
Visibility: 1.86 miles (2.99 km)
Ceiling: 6000 feet AGL
Clouds: few clouds at 400 feet AGL
few clouds at 3000 feet AGL
scattered clouds at 3000 feet AGL
broken clouds at 6000 feet AGL
Weather: -TSRA BR  (light rain associated with thunderstorm(s), mist)

METAR text: ZGKL 041500Z 27002MPS 240V360 3000 -RA BR FEW010 SCT033 BKN056 24/24 Q1007 BECMG FM1600 2000 TSRA
Conditions at: ZGKL (GUILIN , CN) observed 1500 UTC 04 June 2020
Temperature: 24.0°C (75°F)
Dewpoint: 24.0°C (75°F) [RH = 100%]
Pressure (altimeter): 29.73 inches Hg (1007.0 mb)
Winds: from the W (270 degrees) at 5 MPH (4 knots; 2.1 m/s)
Visibility: 1.86 miles (2.99 km)
Ceiling: 5600 feet AGL
Clouds: few clouds at 1000 feet AGL
scattered clouds at 3300 feet AGL
broken clouds at 5600 feet AGL
Weather: -RA BR  (light rain, mist)

METAR text: ZGKL 041400Z VRB01MPS 4500 BR FEW016 SCT033 BKN060 24/24 Q1007 NOSIG
Conditions at: ZGKL (GUILIN , CN) observed 1400 UTC 04 June 2020
Temperature: 24.0°C (75°F)
Dewpoint: 24.0°C (75°F) [RH = 100%]
Pressure (altimeter): 29.73 inches Hg (1007.0 mb)
Winds: variable direction winds at 2 MPH (2 knots; 1.0 m/s)
Visibility: 2.80 miles (4.51 km)
Ceiling: 6000 feet AGL
Clouds: few clouds at 1600 feet AGL
scattered clouds at 3300 feet AGL
broken clouds at 6000 feet AGL
Weather: BR  (mist)

METAR text: ZGKL 041300Z 11002MPS 060V160 5000 BR SCT020 SCT033 BKN060 24/24 Q1006 NOSIG
Conditions at: ZGKL (GUILIN , CN) observed 1300 UTC 04 June 2020
Temperature: 24.0°C (75°F)
Dewpoint: 24.0°C (75°F) [RH = 100%]
Pressure (altimeter): 29.70 inches Hg (1006.0 mb)
Winds: from the ESE (110 degrees) at 5 MPH (4 knots; 2.1 m/s)
Visibility: 3 miles ( 5 km)
Ceiling: 6000 feet AGL
Clouds: scattered clouds at 2000 feet AGL
scattered clouds at 3300 feet AGL
broken clouds at 6000 feet AGL
Weather: BR  (mist)

METAR text: ZGKL 041200Z 00000MPS 5000 BR FEW020 SCT033 24/24 Q1005 NOSIG
Conditions at: ZGKL (GUILIN , CN) observed 1200 UTC 04 June 2020
Temperature: 24.0°C (75°F)
Dewpoint: 24.0°C (75°F) [RH = 100%]
Pressure (altimeter): 29.68 inches Hg (1005.0 mb)
Winds: calm
Visibility: 3 miles ( 5 km)
Ceiling: at least 12,000 feet AGL
Clouds: few clouds at 2000 feet AGL
scattered clouds at 3300 feet AGL
Weather: BR  (mist)

METAR text: ZGKL 041100Z 07002MPS 040V120 6000 SCT023 SCT033 25/24 Q1004 RETS NOSIG
Conditions at: ZGKL (GUILIN , CN) observed 1100 UTC 04 June 2020
Temperature: 25.0°C (77°F)
Dewpoint: 24.0°C (75°F) [RH = 94%]
Pressure (altimeter): 29.65 inches Hg (1004.0 mb)
Winds: from the ENE (70 degrees) at 5 MPH (4 knots; 2.1 m/s)
Visibility: 4 miles ( 6 km)
Ceiling: at least 12,000 feet AGL
Clouds: scattered clouds at 2300 feet AGL
scattered clouds at 3300 feet AGL
Weather: no significant weather observed at this time

METAR text: ZGKL 041000Z 01004MPS 2800 -TSRA BR FEW010 SCT020 FEW020CB BKN053 24/23 Q1004 BECMG FM1030 4000 -RA
Conditions at: ZGKL (GUILIN , CN) observed 1000 UTC 04 June 2020
Temperature: 24.0°C (75°F)
Dewpoint: 23.0°C (73°F) [RH = 94%]
Pressure (altimeter): 29.65 inches Hg (1004.0 mb)
Winds: from the N (10 degrees) at 9 MPH (8 knots; 4.1 m/s)
Visibility: 1.74 miles (2.80 km)
Ceiling: 5300 feet AGL
Clouds: few clouds at 1000 feet AGL
scattered clouds at 2000 feet AGL
few clouds at 2000 feet AGL
broken clouds at 5300 feet AGL
Weather: -TSRA BR  (light rain associated with thunderstorm(s), mist)

METAR text: ZGKL 040900Z 04002MPS 350V080 9999 FEW011 SCT026 FEW026CB BKN060 27/23 Q1004 TEMPO FM0910 TSRA
Conditions at: ZGKL (GUILIN , CN) observed 0900 UTC 04 June 2020
Temperature: 27.0°C (81°F)
Dewpoint: 23.0°C (73°F) [RH = 79%]
Pressure (altimeter): 29.65 inches Hg (1004.0 mb)
Winds: from the NE (40 degrees) at 5 MPH (4 knots; 2.1 m/s)
Visibility: 6 or more miles (10+ km)
Ceiling: 6000 feet AGL
Clouds: few clouds at 1100 feet AGL
scattered clouds at 2600 feet AGL
few clouds at 2600 feet AGL
broken clouds at 6000 feet AGL
Weather: no significant weather observed at this time

METAR text: ZGKL 040800Z 14002MPS 110V170 9999 FEW011 SCT026 FEW026CB BKN060 26/23 Q1005 NOSIG
Conditions at: ZGKL (GUILIN , CN) observed 0800 UTC 04 June 2020
Temperature: 26.0°C (79°F)
Dewpoint: 23.0°C (73°F) [RH = 84%]
Pressure (altimeter): 29.68 inches Hg (1005.0 mb)
Winds: from the SE (140 degrees) at 5 MPH (4 knots; 2.1 m/s)
Visibility: 6 or more miles (10+ km)
Ceiling: 6000 feet AGL
Clouds: few clouds at 1100 feet AGL
scattered clouds at 2600 feet AGL
few clouds at 2600 feet AGL
broken clouds at 6000 feet AGL
Weather: no significant weather observed at this time

METAR text: ZGKL 040700Z 02004MPS 9999 SCT026 BKN053 26/23 Q1005 NOSIG
Conditions at: ZGKL (GUILIN , CN) observed 0700 UTC 04 June 2020
Temperature: 26.0°C (79°F)
Dewpoint: 23.0°C (73°F) [RH = 84%]
Pressure (altimeter): 29.68 inches Hg (1005.0 mb)
Winds: from the NNE (20 degrees) at 9 MPH (8 knots; 4.1 m/s)
Visibility: 6 or more miles (10+ km)
Ceiling: 5300 feet AGL
Clouds: scattered clouds at 2600 feet AGL
broken clouds at 5300 feet AGL
Weather: no significant weather observed at this time

METAR text: ZGKL 040600Z 07004MPS 020V100 9999 -SHRA SCT026 FEW026CB BKN046 25/24 Q1006 TEMPO FM0800 SHRA
Conditions at: ZGKL (GUILIN , CN) observed 0600 UTC 04 June 2020
Temperature: 25.0°C (77°F)
Dewpoint: 24.0°C (75°F) [RH = 94%]
Pressure (altimeter): 29.70 inches Hg (1006.0 mb)
Winds: from the ENE (70 degrees) at 9 MPH (8 knots; 4.1 m/s)
Visibility: 6 or more miles (10+ km)
Ceiling: 4600 feet AGL
Clouds: scattered clouds at 2600 feet AGL
few clouds at 2600 feet AGL
broken clouds at 4600 feet AGL
Weather: -SHRA  (light rain showers)

METAR text: ZGKL 040500Z 35002MPS 320V020 5000 -RA BR SCT023 OVC040 25/24 Q1007 NOSIG
Conditions at: ZGKL (GUILIN , CN) observed 0500 UTC 04 June 2020
Temperature: 25.0°C (77°F)
Dewpoint: 24.0°C (75°F) [RH = 94%]
Pressure (altimeter): 29.73 inches Hg (1007.0 mb)
Winds: from the N (350 degrees) at 5 MPH (4 knots; 2.1 m/s)
Visibility: 3 miles ( 5 km)
Ceiling: 4000 feet AGL
Clouds: scattered clouds at 2300 feet AGL
overcast cloud deck at 4000 feet AGL
Weather: -RA BR  (light rain, mist)

METAR text: ZGKL 040400Z VRB01MPS 5000 BR SCT030 OVC050 26/24 Q1007 NOSIG
Conditions at: ZGKL (GUILIN , CN) observed 0400 UTC 04 June 2020
Temperature: 26.0°C (79°F)
Dewpoint: 24.0°C (75°F) [RH = 89%]
Pressure (altimeter): 29.73 inches Hg (1007.0 mb)
Winds: variable direction winds at 2 MPH (2 knots; 1.0 m/s)
Visibility: 3 miles ( 5 km)
Ceiling: 5000 feet AGL
Clouds: scattered clouds at 3000 feet AGL
overcast cloud deck at 5000 feet AGL
Weather: BR  (mist)

METAR text: ZGKL 040300Z VRB01MPS 4000 BR BKN026 OVC040 25/24 Q1007 NOSIG
Conditions at: ZGKL (GUILIN , CN) observed 0300 UTC 04 June 2020
Temperature: 25.0°C (77°F)
Dewpoint: 24.0°C (75°F) [RH = 94%]
Pressure (altimeter): 29.73 inches Hg (1007.0 mb)
Winds: variable direction winds at 2 MPH (2 knots; 1.0 m/s)
Visibility: 2.49 miles (4.01 km)
Ceiling: 2600 feet AGL
Clouds: broken clouds at 2600 feet AGL
overcast cloud deck at 4000 feet AGL
Weather: BR  (mist)

METAR text: ZGKL 040200Z 00000MPS 3200 BR FEW006 BKN023 OVC033 25/24 Q1007 NOSIG
Conditions at: ZGKL (GUILIN , CN) observed 0200 UTC 04 June 2020
Temperature: 25.0°C (77°F)
Dewpoint: 24.0°C (75°F) [RH = 94%]
Pressure (altimeter): 29.73 inches Hg (1007.0 mb)
Winds: calm
Visibility: 1.99 miles (3.20 km)
Ceiling: 2300 feet AGL
Clouds: few clouds at 600 feet AGL
broken clouds at 2300 feet AGL
overcast cloud deck at 3300 feet AGL
Weather: BR  (mist)

METAR text: ZGKL 040100Z 00000MPS 2800 -DZ BR FEW006 SCT026 OVC036 24/24 Q1007 BECMG FM0300 3500
Conditions at: ZGKL (GUILIN , CN) observed 0100 UTC 04 June 2020
Temperature: 24.0°C (75°F)
Dewpoint: 24.0°C (75°F) [RH = 100%]
Pressure (altimeter): 29.73 inches Hg (1007.0 mb)
Winds: calm
Visibility: 1.74 miles (2.80 km)
Ceiling: 3600 feet AGL
Clouds: few clouds at 600 feet AGL
scattered clouds at 2600 feet AGL
overcast cloud deck at 3600 feet AGL
Weather: -DZ BR  (light drizzle, mist)

METAR text: ZGKL 040000Z 00000MPS 2400 BR FEW003 BKN023 OVC043 24/24 Q1007 BECMG FM0200 4000
Conditions at: ZGKL (GUILIN , CN) observed 0000 UTC 04 June 2020
Temperature: 24.0°C (75°F)
Dewpoint: 24.0°C (75°F) [RH = 100%]
Pressure (altimeter): 29.73 inches Hg (1007.0 mb)
Winds: calm
Visibility: 1.49 miles (2.40 km)
Ceiling: 2300 feet AGL
Clouds: few clouds at 300 feet AGL
broken clouds at 2300 feet AGL
overcast cloud deck at 4300 feet AGL
Weather: BR  (mist)

METAR text: ZGKL 032300Z 00000MPS 2600 -RA BR FEW003 BKN026 BKN053 24/23 Q1006 BECMG FM0100 3500
Conditions at: ZGKL (GUILIN , CN) observed 2300 UTC 03 June 2020
Temperature: 24.0°C (75°F)
Dewpoint: 23.0°C (73°F) [RH = 94%]
Pressure (altimeter): 29.70 inches Hg (1006.0 mb)
Winds: calm
Visibility: 1.62 miles (2.61 km)
Ceiling: 2600 feet AGL
Clouds: few clouds at 300 feet AGL
broken clouds at 2600 feet AGL
broken clouds at 5300 feet AGL
Weather: -RA BR  (light rain, mist)

METAR text: ZGKL 032200Z 00000MPS 2500 -RA BR FEW003 SCT009 BKN026 24/23 Q1006 NOSIG
Conditions at: ZGKL (GUILIN , CN) observed 2200 UTC 03 June 2020
Temperature: 24.0°C (75°F)
Dewpoint: 23.0°C (73°F) [RH = 94%]
Pressure (altimeter): 29.70 inches Hg (1006.0 mb)
Winds: calm
Visibility: 1.55 miles (2.49 km)
Ceiling: 2600 feet AGL
Clouds: few clouds at 300 feet AGL
scattered clouds at 900 feet AGL
broken clouds at 2600 feet AGL
Weather: -RA BR  (light rain, mist)

METAR text: ZGKL 032100Z 00000MPS 4500 -RA BR FEW003 SCT009 OVC040 24/23 Q1006 NOSIG
Conditions at: ZGKL (GUILIN , CN) observed 2100 UTC 03 June 2020
Temperature: 24.0°C (75°F)
Dewpoint: 23.0°C (73°F) [RH = 94%]
Pressure (altimeter): 29.70 inches Hg (1006.0 mb)
Winds: calm
Visibility: 2.80 miles (4.51 km)
Ceiling: 4000 feet AGL
Clouds: few clouds at 300 feet AGL
scattered clouds at 900 feet AGL
overcast cloud deck at 4000 feet AGL
Weather: -RA BR  (light rain, mist)

METAR text: ZGKL 032000Z 00000MPS 4500 BR FEW004 SCT007 OVC040 24/23 Q1005 NOSIG
Conditions at: ZGKL (GUILIN , CN) observed 2000 UTC 03 June 2020
Temperature: 24.0°C (75°F)
Dewpoint: 23.0°C (73°F) [RH = 94%]
Pressure (altimeter): 29.68 inches Hg (1005.0 mb)
Winds: calm
Visibility: 2.80 miles (4.51 km)
Ceiling: 4000 feet AGL
Clouds: few clouds at 400 feet AGL
scattered clouds at 700 feet AGL
overcast cloud deck at 4000 feet AGL
Weather: BR  (mist)

METAR text: ZGKL 031900Z VRB01MPS 4000 -RA BR FEW002 SCT007 OVC040 24/23 Q1005 NOSIG
Conditions at: ZGKL (GUILIN , CN) observed 1900 UTC 03 June 2020
Temperature: 24.0°C (75°F)
Dewpoint: 23.0°C (73°F) [RH = 94%]
Pressure (altimeter): 29.68 inches Hg (1005.0 mb)
Winds: variable direction winds at 2 MPH (2 knots; 1.0 m/s)
Visibility: 2.49 miles (4.01 km)
Ceiling: 4000 feet AGL
Clouds: few clouds at 200 feet AGL
scattered clouds at 700 feet AGL
overcast cloud deck at 4000 feet AGL
Weather: -RA BR  (light rain, mist)

METAR text: ZGKL 031800Z 00000MPS 4000 -RA BR FEW002 SCT030 BKN066 24/23 Q1006 NOSIG
Conditions at: ZGKL (GUILIN , CN) observed 1800 UTC 03 June 2020
Temperature: 24.0°C (75°F)
Dewpoint: 23.0°C (73°F) [RH = 94%]
Pressure (altimeter): 29.70 inches Hg (1006.0 mb)
Winds: calm
Visibility: 2.49 miles (4.01 km)
Ceiling: 6600 feet AGL
Clouds: few clouds at 200 feet AGL
scattered clouds at 3000 feet AGL
broken clouds at 6600 feet AGL
Weather: -RA BR  (light rain, mist)

METAR text: ZGKL 031700Z VRB01MPS 4000 -RA BR FEW003 SCT023 OVC040 24/23 Q1006 NOSIG
Conditions at: ZGKL (GUILIN , CN) observed 1700 UTC 03 June 2020
Temperature: 24.0°C (75°F)
Dewpoint: 23.0°C (73°F) [RH = 94%]
Pressure (altimeter): 29.70 inches Hg (1006.0 mb)
Winds: variable direction winds at 2 MPH (2 knots; 1.0 m/s)
Visibility: 2.49 miles (4.01 km)
Ceiling: 4000 feet AGL
Clouds: few clouds at 300 feet AGL
scattered clouds at 2300 feet AGL
overcast cloud deck at 4000 feet AGL
Weather: -RA BR  (light rain, mist)

METAR text: ZGKL 031600Z 00000MPS 6000 -RA FEW006 SCT026 OVC050 24/23 Q1007 NOSIG
Conditions at: ZGKL (GUILIN , CN) observed 1600 UTC 03 June 2020
Temperature: 24.0°C (75°F)
Dewpoint: 23.0°C (73°F) [RH = 94%]
Pressure (altimeter): 29.73 inches Hg (1007.0 mb)
Winds: calm
Visibility: 4 miles ( 6 km)
Ceiling: 5000 feet AGL
Clouds: few clouds at 600 feet AGL
scattered clouds at 2600 feet AGL
overcast cloud deck at 5000 feet AGL
Weather: -RA  (light rain)

Forecast for: AMD
Text: TAF AMD ZGKL 050003Z 0500/0524 18003MPS 2800 -RA BR FEW006 SCT016 BKN040 TX28/0508Z TN22/0522Z
Forecast period: 0000 to 0300 UTC 05 June 2020
Forecast type: FROM: standard forecast or significant change
Winds: from the S (180 degrees) at 7 MPH (6 knots; 3.1 m/s)
Visibility: 1.74 miles (2.80 km)
Ceiling: 4000 feet AGL
Clouds: few clouds at 600 feet AGL
scattered clouds at 1600 feet AGL
broken clouds at 4000 feet AGL
Weather: -RA BR  (light rain, mist)
Text: TEMPO 0500/0503 SHRA FEW006 SCT016 FEW040CB BKN040
Forecast period: 0000 to 0300 UTC 05 June 2020
Forecast type: TEMPORARY: The following changes expected for less than half the time period
Visibility: missing
Ceiling: at least 12,000 feet AGL
Clouds: few clouds at 600 feet AGL
scattered clouds at 1600 feet AGL
few clouds at 4000 feet AGL
Weather: SHRA  (rain showers)
Text: BECMG 0503/0504 5000 BR
Forecast period: 0300 UTC 05 June 2020 to 0000 UTC 06 June 2020
Forecast type: BECOMING: Conditions expected to become as follows by 0400 UTC 05 June 2020
Winds: from the S (180 degrees) at 7 MPH (6 knots; 3.1 m/s)
Visibility: 3 miles (5 km)
Ceiling: 4000 feet AGL
Clouds: few clouds at 600 feet AGL
scattered clouds at 1600 feet AGL
broken clouds at 4000 feet AGL
Weather: BR  (mist)
Text: TEMPO 0511/0515 2500 TSRA FEW006 SCT020 FEW040CB BKN040
Forecast period: 1100 to 1500 UTC 05 June 2020
Forecast type: TEMPORARY: The following changes expected for less than half the time period
Visibility: 1.55 miles (2.49 km)
Ceiling: at least 12,000 feet AGL
Clouds: few clouds at 600 feet AGL
scattered clouds at 2000 feet AGL
few clouds at 4000 feet AGL
Weather: TSRA  (rain associated with thunderstorm(s))